Nearby METAR Reports

 

ENCN - Kristiansand/Kje, Norway
Distance from station: N 17km
Ultima actualizare: 01/03/2024 05:20
Ploaie uşoară, Acoperit cu nori
Ploaie uşoară, Acoperit cu nori
 Vânt dela SE
Vântul: SE 19 km/h
Temperatura: 6°C
Wind Chill: 3°C
Punct de rouă: 5°C
Umiditate: 93%
Barometru: 1001 hPa
Sumar: Ploaie uşoară
Clouds: Acoperit cu nori
Visibility: 4 km
Cloud details: Acoperit cu nori 122 m
2024/03/01 04:20 ENCN 010420Z AUTO 14010KT 4300 -RA OVC004/// 06/05 Q1001
EKSN - Sindal Airport, Denmark
Distance from station: ESE 145km
Ultima actualizare: 30/12/2021 14:50
NOT Current
Mist, In mare parte înorat
Mist, In mare parte înorat
 Vânt dela SV
Vântul: SV 26 km/h
Temperatura: 7°C
Wind Chill: 3°C
Punct de rouă: 7°C
Umiditate: 100%
Barometru: 999 hPa
Sumar: Mist
Clouds: In mare parte înorat
Visibility: 5 km
Cloud details: Parţial înorat 183 m
In mare parte înorat 244 m
2021/12/30 13:50 EKSN 301350Z 23014KT 4500 BR SCT006 BKN008 07/07 Q0999
 
EKYT - Alborg, Denmark
Distance from station: SE 153km
Ultima actualizare: 01/03/2024 05:20
Acoperit cu nori
Acoperit cu nori
 Vânt dela SE
Vântul: SE 22 km/h
Temperatura: 5°C
Wind Chill: 1°C
Punct de rouă: 3°C
Umiditate: 87%
Barometru: 1003 hPa
Clouds: Acoperit cu nori
Visibility: 5 km
Cloud details: Parţial înorat 1158 m
Acoperit cu nori 3962 m
2024/03/01 04:20 EKYT 010420Z AUTO 13012KT 5000 SCT038/// OVC130/// 05/03 Q1003
ENSN - Skien/Geiterygge, Norway
Distance from station: NE 153km
Ultima actualizare: 09/11/2015 09:50
NOT Current
Senin
Senin
 Vânt dela SSV
Vântul: SSV 19 km/h, Vânt în rafale: 41 km/h
Temperatura: 7°C
Wind Chill: 4°C
Punct de rouă: 3°C
Umiditate: 76%
Barometru: 1000 hPa
Sumar: Senin
Visibility: greater than 10 km
2015/11/09 08:50 ENSN 090850Z 20010G22KT 150V240 CAVOK 07/03 Q1000
 
ENZV - Stavanger/Sola(A, Norway
Distance from station: NV 166km
Ultima actualizare: 01/03/2024 05:20
Light drizzle, Acoperit cu nori
Light drizzle, Acoperit cu nori
 Vânt dela N
Vântul: N 4 km/h
Temperatura: 4°C
Punct de rouă: 4°C
Umiditate: 100%
Barometru: 998 hPa
Sumar: Light Drizzle
Clouds: Acoperit cu nori
Visibility: 10 km
Cloud details: In mare parte înorat 213 m
Acoperit cu nori 335 m
2024/03/01 04:20 ENZV 010420Z 36002KT 9999 -DZ BKN007 OVC011 04/04 Q0998
ENNO - Notodden, Norway
Distance from station: NNE 182km
Ultima actualizare: 29/02/2024 18:50
NOT Current
Ploaie uşoară, Acoperit cu nori
Ploaie uşoară, Acoperit cu nori
 Vânt dela E
Vântul: E 9 km/h
Temperatura: 6°C
Wind Chill: 4°C
Punct de rouă: 4°C
Umiditate: 87%
Barometru: 1002 hPa
Sumar: Ploaie uşoară
Clouds: Acoperit cu nori
Visibility: 10 km
Cloud details: Acoperit cu nori 274 m
2024/02/29 17:50 ENNO 291750Z 09005KT 9999 -RA OVC009 06/04 Q1002
 
ENTO - Torp (civ/Nor-Af, Norway
Distance from station: NE 183km
Ultima actualizare: 01/03/2024 05:20
Precipitaţii, Acoperit cu nori
Precipitaţii, Acoperit cu nori
 Vânt dela SSE
Vântul: SSE 22 km/h
Temperatura: 4°C
Wind Chill: -1°C
Punct de rouă: 4°C
Umiditate: 100%
Barometru: 1004 hPa
Sumar: Precipitaţii
Clouds: Acoperit cu nori
Visibility: 1 km
Cloud details: Acoperit cu nori 30 m
2024/03/01 04:20 ENTO 010420Z AUTO 16012KT 1000 R18/P2000N R36/P2000N RA OVC001/// 04/04 Q1004
EKKA - Karup (dan-Afb), Denmark
Distance from station: SSE 209km
Ultima actualizare: 01/03/2024 05:36
In mare parte înorat
In mare parte înorat
 Vânt dela SE
Vântul: SE 17 km/h
Temperatura: 5°C
Wind Chill: 2°C
Punct de rouă: 3°C
Umiditate: 87%
Barometru: 1002 hPa
Clouds: In mare parte înorat
Visibility: 7 km
Cloud details: Few Clouds 1189 m
In mare parte înorat 4572 m
2024/03/01 04:36 EKKA 010436Z AUTO 14009KT 7000 FEW039/// BKN150/// 05/03 Q1002
 
ENHD - Haugesund/Karmoy, Norway
Distance from station: NV 216km
Ultima actualizare: 01/03/2024 05:20
Ploaie uşoară, Acoperit cu nori
Ploaie uşoară, Acoperit cu nori
 Vânt dela E
Vântul: E 7 km/h
Temperatura: 4°C
Wind Chill: 2°C
Punct de rouă: 3°C
Umiditate: 93%
Barometru: 998 hPa
Sumar: Ploaie uşoară
Clouds: Acoperit cu nori
Visibility: 10 km
Cloud details: Few Clouds 335 m
Acoperit cu nori 518 m
2024/03/01 04:20 ENHD 010420Z AUTO 10004KT 9999 -RA FEW011/// OVC017/// 04/03 Q0998
ENRY - Rygge (nor-Afb), Norway
Distance from station: NE 216km
Ultima actualizare: 01/03/2024 05:20
Ploaie uşoară, Acoperit cu nori
Ploaie uşoară, Acoperit cu nori
 Vânt dela SSE
Vântul: SSE 19 km/h
Temperatura: 4°C
Wind Chill: 0°C
Punct de rouă: 3°C
Umiditate: 93%
Barometru: 1005 hPa
Sumar: Ploaie uşoară
Clouds: Acoperit cu nori
Visibility: 3 km
Cloud details: Few Clouds 61 m
In mare parte înorat 152 m
Acoperit cu nori 213 m
2024/03/01 04:20 ENRY 010420Z AUTO 15010KT 3100 -RA FEW002/// BKN005/// OVC007/// 04/03 Q1005
 
ESGP - Goteborg/Save (a, Sweden
Distance from station: E 230km
Ultima actualizare: 01/03/2024 05:20
Acoperit cu nori
Acoperit cu nori
 Vânt dela SE
Vântul: SE 17 km/h
Temperatura: 3°C
Wind Chill: -1°C
Punct de rouă: 1°C
Umiditate: 87%
Barometru: 1006 hPa
Clouds: Acoperit cu nori
Visibility: 9 km
Cloud details: Acoperit cu nori 3658 m
2024/03/01 04:20 ESGP 010420Z AUTO 13009KT 9000 OVC120/// 03/01 Q1006
EKVJ - Stauning Airport, Denmark
Distance from station: S 233km
Ultima actualizare: 01/03/2024 05:20
Acoperit cu nori
Acoperit cu nori
 Vânt dela ESE
Vântul: ESE 17 km/h
Barometru: 1001 hPa
Clouds: Acoperit cu nori
Visibility: 10 km
Cloud details: Parţial înorat 518 m
Acoperit cu nori 671 m
2024/03/01 04:20 EKVJ 010420Z AUTO 12009KT 9999 SCT017/// OVC022/// ///// Q1001
 
ENSO - Stord/Soerstokke, Norway
Distance from station: NV 246km
Ultima actualizare: 29/02/2024 19:20
NOT Current
In mare parte înorat
In mare parte înorat
 Vânt dela SSE
Vântul: SSE 24 km/h
Temperatura: 6°C
Wind Chill: 2°C
Punct de rouă: 5°C
Umiditate: 93%
Barometru: 998 hPa
Clouds: In mare parte înorat
Visibility: 10 km
Cloud details: Few Clouds 427 m
Parţial înorat 549 m
In mare parte înorat 5182 m
2024/02/29 18:20 ENSO 291820Z 16013KT 9999 FEW014 SCT018 BKN170 06/05 Q0998
EKAH - Tirstrup (civ/Mi, Denmark
Distance from station: SE 252km
Ultima actualizare: 01/03/2024 05:20
Acoperit cu nori
Acoperit cu nori
 Vânt dela SSE
Vântul: SSE 19 km/h
Temperatura: 5°C
Wind Chill: 1°C
Punct de rouă: 3°C
Umiditate: 87%
Barometru: 1004 hPa
Clouds: Acoperit cu nori
Visibility: 5 km
Cloud details: In mare parte înorat 305 m
Acoperit cu nori 3962 m
2024/03/01 04:20 EKAH 010420Z AUTO 15010KT 120V180 5000 BKN010/// OVC130/// 05/03 Q1004
 
ESGT - Trollhattan (pvt, Sweden
Distance from station: E 255km
Ultima actualizare: 01/03/2024 05:20
Parţial înorat
Parţial înorat
 Vânt dela SE
Vântul: SE 17 km/h
Temperatura: 2°C
Wind Chill: -2°C
Punct de rouă: 0°C
Umiditate: 87%
Barometru: 1007 hPa
Clouds: Parţial înorat
Visibility: 8 km
Cloud details: Few Clouds 3353 m
Parţial înorat 4267 m
2024/03/01 04:20 ESGT 010420Z AUTO 14009KT 8000 FEW110/// SCT140/// 02/M00 Q1007
ESGG - Goteborg/Landvet, Sweden
Distance from station: E 257km
Ultima actualizare: 01/03/2024 05:20
Mist, Few clouds
Mist, Few clouds
 Vânt dela SSE
Vântul: SSE 17 km/h
Temperatura: 0°C
Wind Chill: -4°C
Punct de rouă: 0°C
Umiditate: 100%
Barometru: 1006 hPa
Sumar: Mist
Clouds: Few Clouds
Visibility: 4 km
Cloud details: Few Clouds 152 m
2024/03/01 04:20 ESGG 010420Z 15009KT 4200 BR FEW005 00/00 Q1006
 
EKBI - Billund Airport, Denmark
Distance from station: SSE 269km
Ultima actualizare: 01/03/2024 05:20
Acoperit cu nori
Acoperit cu nori
 Vânt dela SE
Vântul: SE 15 km/h
Temperatura: 4°C
Wind Chill: 1°C
Punct de rouă: 3°C
Umiditate: 93%
Barometru: 1002 hPa
Clouds: Acoperit cu nori
Visibility: 5 km
Cloud details: Acoperit cu nori 1280 m
2024/03/01 04:20 EKBI 010420Z AUTO 13008KT 5000 OVC042/// 04/03 Q1002
EKHN - Horns Rev B Heli, Denmark
Distance from station: S 274km
Ultima actualizare: 09/08/2016 14:20
NOT Current
Few Clouds
Few Clouds
 Vânt dela VNV
Vântul: VNV 50 km/h, Vânt în rafale: 72 km/h
Temperatura: 14°C
Punct de rouă: 10°C
Umiditate: 77%
Barometru: 1018 hPa
Clouds: Few Clouds
Visibility: 10 km
Cloud details: Few Clouds 1158 m
Few Clouds 2438 m
2016/08/09 12:20 EKHN 091220Z AUTO 29027G39KT 270V340 9999NDV FEW038/// FEW080/// 14/10 Q1018
 
ESIB - Satenas (swe-Afb, Sweden
Distance from station: E 277km
Ultima actualizare: 01/03/2024 05:20
Senin
Senin
 Vânt dela SE
Vântul: SE 19 km/h
Temperatura: 1°C
Wind Chill: -4°C
Punct de rouă: 0°C
Umiditate: 93%
Barometru: 1007 hPa
Clouds: Senin
Visibility: 10 km
2024/03/01 04:20 ESIB 010420Z AUTO 13010KT 9999 NCD 01/M00 Q1007
EKHR - Horns Rev B Heli, Denmark
Distance from station: S 282km
Ultima actualizare: 04/10/2016 06:20
NOT Current
Senin
Senin
 Vânt dela E
Vântul: E 4 km/h
Temperatura: 11°C
Punct de rouă: -49°C
Umiditate: 0%
Barometru: 1038 hPa
Clouds: Senin
Visibility: 10 km
2016/10/04 04:20 EKHR 040420Z AUTO 08002KT 9999NDV NCD 11/M49 Q1038